sensor_id;sensor_type;location;lat;lon;timestamp;P1;durP1;ratioP1;P2;durP2;ratioP2
5612;SDS011;63463;53.586;9.928;2022-10-22T00:02:07;30.53;;;14.13;;
5612;SDS011;63463;53.586;9.928;2022-10-22T00:04:33;27.50;;;14.00;;
5612;SDS011;63463;53.586;9.928;2022-10-22T00:06:59;30.80;;;15.97;;
5612;SDS011;63463;53.586;9.928;2022-10-22T00:09:25;29.10;;;13.10;;
5612;SDS011;63463;53.586;9.928;2022-10-22T00:11:51;27.20;;;13.80;;
5612;SDS011;63463;53.586;9.928;2022-10-22T00:14:17;25.20;;;13.60;;
5612;SDS011;63463;53.586;9.928;2022-10-22T00:16:43;26.33;;;12.93;;
5612;SDS011;63463;53.586;9.928;2022-10-22T00:19:09;22.30;;;12.97;;
5612;SDS011;63463;53.586;9.928;2022-10-22T00:21:37;27.47;;;14.20;;
5612;SDS011;63463;53.586;9.928;2022-10-22T00:24:03;29.20;;;14.60;;
5612;SDS011;63463;53.586;9.928;2022-10-22T00:26:29;26.63;;;14.10;;
5612;SDS011;63463;53.586;9.928;2022-10-22T00:28:55;29.73;;;15.23;;
5612;SDS011;63463;53.586;9.928;2022-10-22T00:31:21;33.57;;;14.80;;
5612;SDS011;63463;53.586;9.928;2022-10-22T00:33:47;28.53;;;14.40;;
5612;SDS011;63463;53.586;9.928;2022-10-22T00:36:13;27.07;;;13.93;;
5612;SDS011;63463;53.586;9.928;2022-10-22T00:38:39;28.10;;;14.53;;
5612;SDS011;63463;53.586;9.928;2022-10-22T00:41:05;33.23;;;14.43;;
5612;SDS011;63463;53.586;9.928;2022-10-22T00:43:31;31.90;;;14.80;;
5612;SDS011;63463;53.586;9.928;2022-10-22T00:45:57;35.13;;;15.10;;
5612;SDS011;63463;53.586;9.928;2022-10-22T00:48:27;28.77;;;13.77;;
5612;SDS011;63463;53.586;9.928;2022-10-22T00:53:25;25.20;;;14.30;;
5612;SDS011;63463;53.586;9.928;2022-10-22T00:55:53;32.63;;;14.07;;
5612;SDS011;63463;53.586;9.928;2022-10-22T00:58:20;26.97;;;14.00;;
5612;SDS011;63463;53.586;9.928;2022-10-22T01:00:47;26.27;;;14.83;;
5612;SDS011;63463;53.586;9.928;2022-10-22T01:03:13;26.07;;;14.37;;
5612;SDS011;63463;53.586;9.928;2022-10-22T01:05:41;24.27;;;13.60;;
5612;SDS011;63463;53.586;9.928;2022-10-22T01:08:08;30.50;;;14.00;;
5612;SDS011;63463;53.586;9.928;2022-10-22T01:10:52;26.93;;;13.50;;
5612;SDS011;63463;53.586;9.928;2022-10-22T01:13:31;24.60;;;13.67;;
5612;SDS011;63463;53.586;9.928;2022-10-22T01:21:25;27.17;;;13.20;;
5612;SDS011;63463;53.586;9.928;2022-10-22T01:29:01;24.70;;;13.93;;
5612;SDS011;63463;53.586;9.928;2022-10-22T01:31:30;27.30;;;14.80;;
5612;SDS011;63463;53.586;9.928;2022-10-22T01:33:57;25.93;;;13.77;;
5612;SDS011;63463;53.586;9.928;2022-10-22T01:36:24;25.40;;;13.70;;
5612;SDS011;63463;53.586;9.928;2022-10-22T01:38:50;29.47;;;14.00;;
5612;SDS011;63463;53.586;9.928;2022-10-22T01:41:17;25.20;;;13.60;;
5612;SDS011;63463;53.586;9.928;2022-10-22T01:43:43;25.10;;;14.47;;
5612;SDS011;63463;53.586;9.928;2022-10-22T01:46:09;29.27;;;14.03;;
5612;SDS011;63463;53.586;9.928;2022-10-22T01:53:51;27.57;;;14.27;;
5612;SDS011;63463;53.586;9.928;2022-10-22T01:59:06;27.90;;;14.50;;
5612;SDS011;63463;53.586;9.928;2022-10-22T02:04:13;22.07;;;12.63;;
5612;SDS011;63463;53.586;9.928;2022-10-22T02:06:40;25.13;;;13.37;;
5612;SDS011;63463;53.586;9.928;2022-10-22T02:09:08;33.30;;;13.57;;
5612;SDS011;63463;53.586;9.928;2022-10-22T02:11:34;25.13;;;13.10;;
5612;SDS011;63463;53.586;9.928;2022-10-22T02:14:01;26.20;;;13.47;;
5612;SDS011;63463;53.586;9.928;2022-10-22T02:16:29;23.23;;;13.50;;
5612;SDS011;63463;53.586;9.928;2022-10-22T02:18:57;21.00;;;12.73;;
5612;SDS011;63463;53.586;9.928;2022-10-22T02:21:25;20.30;;;11.40;;
5612;SDS011;63463;53.586;9.928;2022-10-22T02:23:51;24.03;;;12.37;;
5612;SDS011;63463;53.586;9.928;2022-10-22T02:26:29;17.80;;;11.57;;
5612;SDS011;63463;53.586;9.928;2022-10-22T02:29:04;18.73;;;11.10;;
5612;SDS011;63463;53.586;9.928;2022-10-22T02:31:33;23.10;;;13.83;;
5612;SDS011;63463;53.586;9.928;2022-10-22T02:34:01;29.50;;;14.67;;
5612;SDS011;63463;53.586;9.928;2022-10-22T02:36:29;24.70;;;12.47;;
5612;SDS011;63463;53.586;9.928;2022-10-22T02:38:55;19.50;;;11.93;;
5612;SDS011;63463;53.586;9.928;2022-10-22T02:41:21;20.77;;;13.43;;
5612;SDS011;63463;53.586;9.928;2022-10-22T02:43:49;22.80;;;11.43;;
5612;SDS011;63463;53.586;9.928;2022-10-22T02:46:16;22.73;;;13.20;;
5612;SDS011;63463;53.586;9.928;2022-10-22T02:48:42;35.60;;;10.40;;
5612;SDS011;63463;53.586;9.928;2022-10-22T02:51:07;24.57;;;13.23;;
5612;SDS011;63463;53.586;9.928;2022-10-22T02:53:33;25.40;;;13.10;;
5612;SDS011;63463;53.586;9.928;2022-10-22T02:55:59;34.93;;;13.20;;
5612;SDS011;63463;53.586;9.928;2022-10-22T02:58:25;27.30;;;13.40;;
5612;SDS011;63463;53.586;9.928;2022-10-22T03:00:51;25.00;;;13.40;;
5612;SDS011;63463;53.586;9.928;2022-10-22T03:03:17;24.00;;;13.80;;
5612;SDS011;63463;53.586;9.928;2022-10-22T03:05:43;26.13;;;13.10;;
5612;SDS011;63463;53.586;9.928;2022-10-22T03:08:09;23.90;;;13.20;;
5612;SDS011;63463;53.586;9.928;2022-10-22T03:10:35;25.33;;;14.80;;
5612;SDS011;63463;53.586;9.928;2022-10-22T03:13:01;24.00;;;14.47;;
5612;SDS011;63463;53.586;9.928;2022-10-22T03:15:27;24.97;;;15.07;;
5612;SDS011;63463;53.586;9.928;2022-10-22T03:17:53;27.40;;;14.17;;
5612;SDS011;63463;53.586;9.928;2022-10-22T03:20:19;28.73;;;15.33;;
5612;SDS011;63463;53.586;9.928;2022-10-22T03:22:45;27.57;;;13.30;;
5612;SDS011;63463;53.586;9.928;2022-10-22T03:25:12;22.17;;;13.20;;
5612;SDS011;63463;53.586;9.928;2022-10-22T03:27:39;24.47;;;13.73;;
5612;SDS011;63463;53.586;9.928;2022-10-22T03:30:06;25.30;;;13.80;;
5612;SDS011;63463;53.586;9.928;2022-10-22T03:32:32;22.13;;;13.50;;
5612;SDS011;63463;53.586;9.928;2022-10-22T03:34:58;23.77;;;13.33;;
5612;SDS011;63463;53.586;9.928;2022-10-22T03:37:24;31.23;;;14.40;;
5612;SDS011;63463;53.586;9.928;2022-10-22T03:39:51;24.77;;;12.80;;
5612;SDS011;63463;53.586;9.928;2022-10-22T03:42:17;25.27;;;12.97;;
5612;SDS011;63463;53.586;9.928;2022-10-22T03:44:43;22.50;;;12.90;;
5612;SDS011;63463;53.586;9.928;2022-10-22T03:47:09;25.57;;;13.53;;
5612;SDS011;63463;53.586;9.928;2022-10-22T03:49:35;27.17;;;14.30;;
5612;SDS011;63463;53.586;9.928;2022-10-22T03:52:05;22.80;;;13.60;;
5612;SDS011;63463;53.586;9.928;2022-10-22T03:54:31;22.60;;;13.37;;
5612;SDS011;63463;53.586;9.928;2022-10-22T03:56:57;28.63;;;14.50;;
5612;SDS011;63463;53.586;9.928;2022-10-22T03:59:23;22.20;;;13.13;;
5612;SDS011;63463;53.586;9.928;2022-10-22T04:01:49;25.63;;;14.57;;
5612;SDS011;63463;53.586;9.928;2022-10-22T04:04:15;26.33;;;13.60;;
5612;SDS011;63463;53.586;9.928;2022-10-22T04:06:41;29.50;;;15.00;;
5612;SDS011;63463;53.586;9.928;2022-10-22T04:09:07;33.93;;;14.27;;
5612;SDS011;63463;53.586;9.928;2022-10-22T04:11:32;34.83;;;15.37;;
5612;SDS011;63463;53.586;9.928;2022-10-22T04:13:58;27.10;;;14.73;;
5612;SDS011;63463;53.586;9.928;2022-10-22T04:16:24;35.57;;;16.20;;
5612;SDS011;63463;53.586;9.928;2022-10-22T04:18:55;29.47;;;15.23;;
5612;SDS011;63463;53.586;9.928;2022-10-22T04:21:21;28.60;;;16.30;;
5612;SDS011;63463;53.586;9.928;2022-10-22T04:23:50;31.20;;;16.00;;
5612;SDS011;63463;53.586;9.928;2022-10-22T04:26:17;32.47;;;15.27;;
5612;SDS011;63463;53.586;9.928;2022-10-22T04:28:44;30.10;;;15.27;;
5612;SDS011;63463;53.586;9.928;2022-10-22T04:31:11;31.87;;;17.30;;
5612;SDS011;63463;53.586;9.928;2022-10-22T04:33:37;36.87;;;17.03;;
5612;SDS011;63463;53.586;9.928;2022-10-22T04:36:11;36.00;;;16.97;;
5612;SDS011;63463;53.586;9.928;2022-10-22T04:38:37;35.93;;;17.50;;
5612;SDS011;63463;53.586;9.928;2022-10-22T04:41:07;37.37;;;17.03;;
5612;SDS011;63463;53.586;9.928;2022-10-22T04:43:33;43.23;;;19.27;;
5612;SDS011;63463;53.586;9.928;2022-10-22T04:45:59;44.43;;;18.77;;
5612;SDS011;63463;53.586;9.928;2022-10-22T04:48:25;43.53;;;19.47;;
5612;SDS011;63463;53.586;9.928;2022-10-22T04:50:51;42.77;;;19.07;;
5612;SDS011;63463;53.586;9.928;2022-10-22T04:53:17;41.23;;;19.10;;
5612;SDS011;63463;53.586;9.928;2022-10-22T04:55:43;39.10;;;17.93;;
5612;SDS011;63463;53.586;9.928;2022-10-22T04:58:09;46.10;;;18.80;;
5612;SDS011;63463;53.586;9.928;2022-10-22T05:00:35;48.50;;;18.83;;
5612;SDS011;63463;53.586;9.928;2022-10-22T05:03:01;45.10;;;20.03;;
5612;SDS011;63463;53.586;9.928;2022-10-22T05:05:27;52.10;;;21.70;;
5612;SDS011;63463;53.586;9.928;2022-10-22T05:07:53;37.77;;;18.90;;
5612;SDS011;63463;53.586;9.928;2022-10-22T05:10:18;49.70;;;19.63;;
5612;SDS011;63463;53.586;9.928;2022-10-22T05:12:44;42.23;;;18.67;;
5612;SDS011;63463;53.586;9.928;2022-10-22T05:15:10;41.03;;;17.73;;
5612;SDS011;63463;53.586;9.928;2022-10-22T05:17:36;38.40;;;19.17;;
5612;SDS011;63463;53.586;9.928;2022-10-22T05:20:03;43.10;;;19.70;;
5612;SDS011;63463;53.586;9.928;2022-10-22T05:22:29;49.23;;;19.00;;
5612;SDS011;63463;53.586;9.928;2022-10-22T05:24:55;36.77;;;18.57;;
5612;SDS011;63463;53.586;9.928;2022-10-22T05:27:21;49.47;;;20.50;;
5612;SDS011;63463;53.586;9.928;2022-10-22T05:29:47;46.90;;;18.17;;
5612;SDS011;63463;53.586;9.928;2022-10-22T05:32:13;41.40;;;18.80;;
5612;SDS011;63463;53.586;9.928;2022-10-22T05:34:39;40.47;;;16.83;;
5612;SDS011;63463;53.586;9.928;2022-10-22T05:37:04;48.53;;;19.17;;
5612;SDS011;63463;53.586;9.928;2022-10-22T05:39:30;40.40;;;18.70;;
5612;SDS011;63463;53.586;9.928;2022-10-22T05:42:00;43.50;;;18.00;;
5612;SDS011;63463;53.586;9.928;2022-10-22T05:44:26;41.27;;;17.37;;
5612;SDS011;63463;53.586;9.928;2022-10-22T05:46:52;35.30;;;17.30;;
5612;SDS011;63463;53.586;9.928;2022-10-22T05:49:18;33.77;;;17.43;;
5612;SDS011;63463;53.586;9.928;2022-10-22T05:51:44;40.10;;;16.83;;
5612;SDS011;63463;53.586;9.928;2022-10-22T05:54:17;42.43;;;17.70;;
5612;SDS011;63463;53.586;9.928;2022-10-22T05:56:43;35.03;;;17.00;;
5612;SDS011;63463;53.586;9.928;2022-10-22T05:59:09;35.37;;;16.13;;
5612;SDS011;63463;53.586;9.928;2022-10-22T06:01:35;36.03;;;17.00;;
5612;SDS011;63463;53.586;9.928;2022-10-22T06:04:04;31.83;;;16.50;;
5612;SDS011;63463;53.586;9.928;2022-10-22T06:06:34;34.63;;;17.00;;
5612;SDS011;63463;53.586;9.928;2022-10-22T06:11:39;32.40;;;16.47;;
5612;SDS011;63463;53.586;9.928;2022-10-22T06:14:05;35.47;;;17.23;;
5612;SDS011;63463;53.586;9.928;2022-10-22T06:16:31;30.43;;;16.40;;
5612;SDS011;63463;53.586;9.928;2022-10-22T06:18:58;38.10;;;16.47;;
5612;SDS011;63463;53.586;9.928;2022-10-22T06:21:26;35.50;;;17.63;;
5612;SDS011;63463;53.586;9.928;2022-10-22T06:23:54;38.10;;;18.20;;
5612;SDS011;63463;53.586;9.928;2022-10-22T06:26:20;33.63;;;16.40;;
5612;SDS011;63463;53.586;9.928;2022-10-22T06:28:46;34.63;;;16.90;;
5612;SDS011;63463;53.586;9.928;2022-10-22T06:31:12;29.20;;;16.37;;
5612;SDS011;63463;53.586;9.928;2022-10-22T06:33:38;36.13;;;17.30;;
5612;SDS011;63463;53.586;9.928;2022-10-22T06:36:18;33.23;;;17.07;;
5612;SDS011;63463;53.586;9.928;2022-10-22T06:38:44;31.63;;;16.30;;
5612;SDS011;63463;53.586;9.928;2022-10-22T06:41:11;30.47;;;16.80;;
5612;SDS011;63463;53.586;9.928;2022-10-22T06:43:37;31.90;;;16.77;;
5612;SDS011;63463;53.586;9.928;2022-10-22T06:46:05;30.27;;;16.07;;
5612;SDS011;63463;53.586;9.928;2022-10-22T06:48:33;32.17;;;16.73;;
5612;SDS011;63463;53.586;9.928;2022-10-22T06:51:08;31.13;;;16.43;;
5612;SDS011;63463;53.586;9.928;2022-10-22T06:53:35;35.13;;;17.10;;
5612;SDS011;63463;53.586;9.928;2022-10-22T06:56:08;32.40;;;16.73;;
5612;SDS011;63463;53.586;9.928;2022-10-22T06:58:34;32.67;;;16.30;;
5612;SDS011;63463;53.586;9.928;2022-10-22T07:01:04;31.57;;;16.30;;
5612;SDS011;63463;53.586;9.928;2022-10-22T07:03:30;30.30;;;15.73;;
5612;SDS011;63463;53.586;9.928;2022-10-22T07:06:05;31.77;;;16.27;;
5612;SDS011;63463;53.586;9.928;2022-10-22T07:08:32;32.93;;;16.30;;
5612;SDS011;63463;53.586;9.928;2022-10-22T07:11:15;28.80;;;15.90;;
5612;SDS011;63463;53.586;9.928;2022-10-22T07:13:41;35.73;;;17.27;;
5612;SDS011;63463;53.586;9.928;2022-10-22T07:16:08;28.57;;;17.10;;
5612;SDS011;63463;53.586;9.928;2022-10-22T07:18:34;30.23;;;15.60;;
5612;SDS011;63463;53.586;9.928;2022-10-22T07:21:02;34.10;;;16.63;;
5612;SDS011;63463;53.586;9.928;2022-10-22T07:23:28;43.40;;;16.60;;
5612;SDS011;63463;53.586;9.928;2022-10-22T07:25:54;33.87;;;16.33;;
5612;SDS011;63463;53.586;9.928;2022-10-22T07:28:20;29.03;;;16.60;;
5612;SDS011;63463;53.586;9.928;2022-10-22T07:30:46;32.53;;;15.90;;
5612;SDS011;63463;53.586;9.928;2022-10-22T07:33:12;28.97;;;15.53;;
5612;SDS011;63463;53.586;9.928;2022-10-22T07:35:38;36.43;;;15.90;;
5612;SDS011;63463;53.586;9.928;2022-10-22T07:38:05;31.87;;;16.73;;
5612;SDS011;63463;53.586;9.928;2022-10-22T07:40:31;39.80;;;16.37;;
5612;SDS011;63463;53.586;9.928;2022-10-22T07:42:57;30.57;;;16.00;;
5612;SDS011;63463;53.586;9.928;2022-10-22T07:45:23;29.27;;;15.20;;
5612;SDS011;63463;53.586;9.928;2022-10-22T07:47:49;27.07;;;14.33;;
5612;SDS011;63463;53.586;9.928;2022-10-22T07:50:15;35.07;;;15.27;;
5612;SDS011;63463;53.586;9.928;2022-10-22T07:52:42;25.30;;;14.80;;
5612;SDS011;63463;53.586;9.928;2022-10-22T07:55:08;31.23;;;15.70;;
5612;SDS011;63463;53.586;9.928;2022-10-22T07:57:35;31.93;;;16.20;;
5612;SDS011;63463;53.586;9.928;2022-10-22T08:00:02;36.50;;;15.57;;
5612;SDS011;63463;53.586;9.928;2022-10-22T08:02:28;27.13;;;15.17;;
5612;SDS011;63463;53.586;9.928;2022-10-22T08:04:54;31.17;;;16.00;;
5612;SDS011;63463;53.586;9.928;2022-10-22T08:07:21;32.67;;;15.67;;
5612;SDS011;63463;53.586;9.928;2022-10-22T08:09:47;33.23;;;16.27;;
5612;SDS011;63463;53.586;9.928;2022-10-22T08:12:13;35.13;;;15.00;;
5612;SDS011;63463;53.586;9.928;2022-10-22T08:14:39;40.50;;;16.43;;
5612;SDS011;63463;53.586;9.928;2022-10-22T08:17:05;34.60;;;15.40;;
5612;SDS011;63463;53.586;9.928;2022-10-22T08:19:31;30.10;;;15.50;;
5612;SDS011;63463;53.586;9.928;2022-10-22T08:21:59;29.23;;;14.40;;
5612;SDS011;63463;53.586;9.928;2022-10-22T08:24:25;30.33;;;15.97;;
5612;SDS011;63463;53.586;9.928;2022-10-22T08:26:51;28.90;;;15.00;;
5612;SDS011;63463;53.586;9.928;2022-10-22T08:29:18;29.40;;;15.13;;
5612;SDS011;63463;53.586;9.928;2022-10-22T08:31:47;27.13;;;14.50;;
5612;SDS011;63463;53.586;9.928;2022-10-22T08:34:13;25.43;;;13.27;;
5612;SDS011;63463;53.586;9.928;2022-10-22T08:36:39;25.30;;;13.13;;
5612;SDS011;63463;53.586;9.928;2022-10-22T08:39:05;24.27;;;12.87;;
5612;SDS011;63463;53.586;9.928;2022-10-22T08:41:33;31.30;;;14.40;;
5612;SDS011;63463;53.586;9.928;2022-10-22T08:49:02;29.80;;;12.50;;
5612;SDS011;63463;53.586;9.928;2022-10-22T08:51:30;26.00;;;13.37;;
5612;SDS011;63463;53.586;9.928;2022-10-22T08:54:12;28.00;;;12.07;;
5612;SDS011;63463;53.586;9.928;2022-10-22T08:56:40;25.90;;;11.00;;
5612;SDS011;63463;53.586;9.928;2022-10-22T08:59:16;24.53;;;9.90;;
5612;SDS011;63463;53.586;9.928;2022-10-22T09:01:45;19.10;;;9.60;;
5612;SDS011;63463;53.586;9.928;2022-10-22T09:04:13;16.07;;;10.33;;
5612;SDS011;63463;53.586;9.928;2022-10-22T09:06:41;11.73;;;8.67;;
5612;SDS011;63463;53.586;9.928;2022-10-22T09:09:14;19.23;;;8.87;;
5612;SDS011;63463;53.586;9.928;2022-10-22T09:11:42;13.53;;;8.40;;
5612;SDS011;63463;53.586;9.928;2022-10-22T09:14:13;18.60;;;8.80;;
5612;SDS011;63463;53.586;9.928;2022-10-22T09:17:00;20.70;;;8.73;;
5612;SDS011;63463;53.586;9.928;2022-10-22T09:19:36;13.00;;;9.00;;
5612;SDS011;63463;53.586;9.928;2022-10-22T09:22:09;15.50;;;8.03;;
5612;SDS011;63463;53.586;9.928;2022-10-22T09:24:46;12.47;;;7.93;;
5612;SDS011;63463;53.586;9.928;2022-10-22T09:27:19;15.57;;;8.20;;
5612;SDS011;63463;53.586;9.928;2022-10-22T09:29:48;18.60;;;8.13;;
5612;SDS011;63463;53.586;9.928;2022-10-22T09:32:15;22.27;;;7.90;;
5612;SDS011;63463;53.586;9.928;2022-10-22T09:34:48;12.40;;;6.93;;
5612;SDS011;63463;53.586;9.928;2022-10-22T09:37:16;15.67;;;7.50;;
5612;SDS011;63463;53.586;9.928;2022-10-22T09:39:46;13.23;;;7.23;;
5612;SDS011;63463;53.586;9.928;2022-10-22T09:42:14;15.33;;;7.20;;
5612;SDS011;63463;53.586;9.928;2022-10-22T09:44:40;11.63;;;6.87;;
5612;SDS011;63463;53.586;9.928;2022-10-22T09:52:37;19.53;;;6.77;;
5612;SDS011;63463;53.586;9.928;2022-10-22T09:55:16;8.17;;;5.23;;
5612;SDS011;63463;53.586;9.928;2022-10-22T09:57:43;12.40;;;6.27;;
5612;SDS011;63463;53.586;9.928;2022-10-22T10:00:09;15.63;;;6.27;;
5612;SDS011;63463;53.586;9.928;2022-10-22T10:02:38;19.20;;;6.27;;
5612;SDS011;63463;53.586;9.928;2022-10-22T10:05:06;13.67;;;6.10;;
5612;SDS011;63463;53.586;9.928;2022-10-22T10:07:33;10.90;;;4.87;;
5612;SDS011;63463;53.586;9.928;2022-10-22T10:10:00;17.53;;;5.67;;
5612;SDS011;63463;53.586;9.928;2022-10-22T10:17:32;10.20;;;6.07;;
5612;SDS011;63463;53.586;9.928;2022-10-22T10:22:48;11.93;;;4.27;;
5612;SDS011;63463;53.586;9.928;2022-10-22T10:30:27;10.20;;;4.40;;
5612;SDS011;63463;53.586;9.928;2022-10-22T10:35:27;8.43;;;4.10;;
5612;SDS011;63463;53.586;9.928;2022-10-22T10:48:51;6.07;;;3.20;;
5612;SDS011;63463;53.586;9.928;2022-10-22T10:51:26;6.30;;;2.93;;
5612;SDS011;63463;53.586;9.928;2022-10-22T10:54:06;6.33;;;3.70;;
5612;SDS011;63463;53.586;9.928;2022-10-22T11:04:04;10.40;;;3.60;;
5612;SDS011;63463;53.586;9.928;2022-10-22T11:06:35;9.77;;;3.37;;
5612;SDS011;63463;53.586;9.928;2022-10-22T11:09:04;12.57;;;3.47;;
5612;SDS011;63463;53.586;9.928;2022-10-22T11:11:33;3.47;;;2.20;;
5612;SDS011;63463;53.586;9.928;2022-10-22T11:14:12;4.83;;;3.33;;
5612;SDS011;63463;53.586;9.928;2022-10-22T11:16:45;5.00;;;3.00;;
5612;SDS011;63463;53.586;9.928;2022-10-22T11:19:22;4.53;;;3.10;;
5612;SDS011;63463;53.586;9.928;2022-10-22T11:21:52;9.23;;;3.90;;
5612;SDS011;63463;53.586;9.928;2022-10-22T11:24:29;7.60;;;2.63;;
5612;SDS011;63463;53.586;9.928;2022-10-22T11:27:01;5.73;;;2.83;;
5612;SDS011;63463;53.586;9.928;2022-10-22T11:29:48;11.43;;;3.83;;
5612;SDS011;63463;53.586;9.928;2022-10-22T11:32:18;9.40;;;2.93;;
5612;SDS011;63463;53.586;9.928;2022-10-22T11:34:45;10.50;;;3.50;;
5612;SDS011;63463;53.586;9.928;2022-10-22T11:37:12;9.83;;;3.53;;
5612;SDS011;63463;53.586;9.928;2022-10-22T11:39:49;6.67;;;2.93;;
5612;SDS011;63463;53.586;9.928;2022-10-22T11:42:20;12.80;;;3.70;;
5612;SDS011;63463;53.586;9.928;2022-10-22T11:44:47;9.23;;;3.27;;
5612;SDS011;63463;53.586;9.928;2022-10-22T11:47:16;4.37;;;3.20;;
5612;SDS011;63463;53.586;9.928;2022-10-22T11:50:01;8.93;;;3.97;;
5612;SDS011;63463;53.586;9.928;2022-10-22T11:54:57;13.27;;;4.00;;
5612;SDS011;63463;53.586;9.928;2022-10-22T11:57:27;11.27;;;3.93;;
5612;SDS011;63463;53.586;9.928;2022-10-22T11:59:57;10.90;;;3.60;;
5612;SDS011;63463;53.586;9.928;2022-10-22T12:04:54;9.07;;;3.50;;
5612;SDS011;63463;53.586;9.928;2022-10-22T12:08:03;18.90;;;3.90;;
5612;SDS011;63463;53.586;9.928;2022-10-22T12:10:19;4.40;;;3.57;;
5612;SDS011;63463;53.586;9.928;2022-10-22T12:12:51;5.17;;;3.50;;
5612;SDS011;63463;53.586;9.928;2022-10-22T12:15:25;6.90;;;3.93;;
5612;SDS011;63463;53.586;9.928;2022-10-22T12:17:58;6.00;;;3.60;;
5612;SDS011;63463;53.586;9.928;2022-10-22T12:20:24;6.30;;;3.33;;
5612;SDS011;63463;53.586;9.928;2022-10-22T12:22:51;7.00;;;3.23;;
5612;SDS011;63463;53.586;9.928;2022-10-22T12:25:18;5.20;;;3.47;;
5612;SDS011;63463;53.586;9.928;2022-10-22T12:27:53;9.03;;;3.97;;
5612;SDS011;63463;53.586;9.928;2022-10-22T12:32:49;5.10;;;3.83;;
5612;SDS011;63463;53.586;9.928;2022-10-22T12:35:17;7.63;;;3.77;;
5612;SDS011;63463;53.586;9.928;2022-10-22T12:37:43;7.27;;;4.10;;
5612;SDS011;63463;53.586;9.928;2022-10-22T12:40:16;4.03;;;3.67;;
5612;SDS011;63463;53.586;9.928;2022-10-22T12:42:53;8.43;;;4.03;;
5612;SDS011;63463;53.586;9.928;2022-10-22T12:45:25;6.40;;;4.70;;
5612;SDS011;63463;53.586;9.928;2022-10-22T12:47:54;8.20;;;4.20;;
5612;SDS011;63463;53.586;9.928;2022-10-22T12:50:22;8.83;;;4.37;;
5612;SDS011;63463;53.586;9.928;2022-10-22T12:52:49;4.73;;;4.20;;
5612;SDS011;63463;53.586;9.928;2022-10-22T12:55:16;10.50;;;4.20;;
5612;SDS011;63463;53.586;9.928;2022-10-22T12:57:42;4.87;;;4.40;;
5612;SDS011;63463;53.586;9.928;2022-10-22T13:00:27;8.40;;;4.90;;
5612;SDS011;63463;53.586;9.928;2022-10-22T13:02:53;14.43;;;4.43;;
5612;SDS011;63463;53.586;9.928;2022-10-22T13:07:46;5.70;;;3.83;;
5612;SDS011;63463;53.586;9.928;2022-10-22T13:10:26;4.90;;;3.90;;
5612;SDS011;63463;53.586;9.928;2022-10-22T13:12:56;4.53;;;4.13;;
5612;SDS011;63463;53.586;9.928;2022-10-22T13:18:01;8.53;;;4.13;;
5612;SDS011;63463;53.586;9.928;2022-10-22T13:20:27;5.97;;;4.03;;
5612;SDS011;63463;53.586;9.928;2022-10-22T13:22:57;16.20;;;4.67;;
5612;SDS011;63463;53.586;9.928;2022-10-22T13:28:35;4.13;;;3.50;;
5612;SDS011;63463;53.586;9.928;2022-10-22T13:30:50;4.50;;;3.97;;
5612;SDS011;63463;53.586;9.928;2022-10-22T13:33:29;9.57;;;4.40;;
5612;SDS011;63463;53.586;9.928;2022-10-22T13:35:57;11.70;;;3.90;;
5612;SDS011;63463;53.586;9.928;2022-10-22T13:38:23;10.00;;;3.30;;
5612;SDS011;63463;53.586;9.928;2022-10-22T13:40:50;9.23;;;3.93;;
5612;SDS011;63463;53.586;9.928;2022-10-22T13:43:16;7.17;;;3.80;;
5612;SDS011;63463;53.586;9.928;2022-10-22T13:45:43;5.27;;;3.60;;
5612;SDS011;63463;53.586;9.928;2022-10-22T13:48:11;5.90;;;3.60;;
5612;SDS011;63463;53.586;9.928;2022-10-22T13:50:38;10.80;;;4.10;;
5612;SDS011;63463;53.586;9.928;2022-10-22T13:53:04;12.23;;;3.70;;
5612;SDS011;63463;53.586;9.928;2022-10-22T13:55:32;16.47;;;4.93;;
5612;SDS011;63463;53.586;9.928;2022-10-22T13:58:14;10.20;;;3.90;;
5612;SDS011;63463;53.586;9.928;2022-10-22T14:00:48;4.80;;;3.60;;
5612;SDS011;63463;53.586;9.928;2022-10-22T14:03:15;11.37;;;4.27;;
5612;SDS011;63463;53.586;9.928;2022-10-22T14:05:42;10.90;;;3.90;;
5612;SDS011;63463;53.586;9.928;2022-10-22T14:08:10;6.23;;;3.50;;
5612;SDS011;63463;53.586;9.928;2022-10-22T14:10:37;15.10;;;4.23;;
5612;SDS011;63463;53.586;9.928;2022-10-22T14:13:05;7.80;;;3.93;;
5612;SDS011;63463;53.586;9.928;2022-10-22T14:15:31;7.83;;;3.50;;
5612;SDS011;63463;53.586;9.928;2022-10-22T14:17:57;20.73;;;6.10;;
5612;SDS011;63463;53.586;9.928;2022-10-22T14:20:25;6.33;;;3.97;;
5612;SDS011;63463;53.586;9.928;2022-10-22T14:22:52;3.33;;;3.13;;
5612;SDS011;63463;53.586;9.928;2022-10-22T14:25:19;6.90;;;3.77;;
5612;SDS011;63463;53.586;9.928;2022-10-22T14:27:46;12.20;;;4.70;;
5612;SDS011;63463;53.586;9.928;2022-10-22T14:30:12;5.90;;;3.27;;
5612;SDS011;63463;53.586;9.928;2022-10-22T14:32:39;7.70;;;2.87;;
5612;SDS011;63463;53.586;9.928;2022-10-22T14:35:05;4.90;;;2.77;;
5612;SDS011;63463;53.586;9.928;2022-10-22T14:37:31;13.10;;;3.97;;
5612;SDS011;63463;53.586;9.928;2022-10-22T14:39:57;6.63;;;3.60;;
5612;SDS011;63463;53.586;9.928;2022-10-22T14:42:26;5.57;;;3.30;;
5612;SDS011;63463;53.586;9.928;2022-10-22T14:44:53;6.17;;;3.03;;
5612;SDS011;63463;53.586;9.928;2022-10-22T14:47:19;9.57;;;3.67;;
5612;SDS011;63463;53.586;9.928;2022-10-22T14:49:45;11.13;;;3.50;;
5612;SDS011;63463;53.586;9.928;2022-10-22T14:52:11;12.27;;;3.73;;
5612;SDS011;63463;53.586;9.928;2022-10-22T14:54:37;22.67;;;3.27;;
5612;SDS011;63463;53.586;9.928;2022-10-22T14:57:03;11.87;;;3.50;;
5612;SDS011;63463;53.586;9.928;2022-10-22T14:59:29;5.00;;;3.20;;
5612;SDS011;63463;53.586;9.928;2022-10-22T15:01:55;6.90;;;3.43;;
5612;SDS011;63463;53.586;9.928;2022-10-22T15:04:21;9.50;;;3.60;;
5612;SDS011;63463;53.586;9.928;2022-10-22T15:06:49;5.60;;;3.50;;
5612;SDS011;63463;53.586;9.928;2022-10-22T15:09:20;8.30;;;3.57;;
5612;SDS011;63463;53.586;9.928;2022-10-22T15:11:46;7.10;;;3.30;;
5612;SDS011;63463;53.586;9.928;2022-10-22T15:14:12;13.27;;;4.43;;
5612;SDS011;63463;53.586;9.928;2022-10-22T15:16:39;3.30;;;3.03;;
5612;SDS011;63463;53.586;9.928;2022-10-22T15:19:05;6.33;;;3.50;;
5612;SDS011;63463;53.586;9.928;2022-10-22T15:21:31;4.53;;;3.00;;
5612;SDS011;63463;53.586;9.928;2022-10-22T15:23:57;8.47;;;3.50;;
5612;SDS011;63463;53.586;9.928;2022-10-22T15:26:24;10.37;;;3.60;;
5612;SDS011;63463;53.586;9.928;2022-10-22T15:28:51;4.00;;;3.30;;
5612;SDS011;63463;53.586;9.928;2022-10-22T15:31:18;13.83;;;3.40;;
5612;SDS011;63463;53.586;9.928;2022-10-22T15:34:04;14.13;;;3.63;;
5612;SDS011;63463;53.586;9.928;2022-10-22T15:36:30;14.43;;;4.63;;
5612;SDS011;63463;53.586;9.928;2022-10-22T15:38:56;6.03;;;3.20;;
5612;SDS011;63463;53.586;9.928;2022-10-22T15:41:22;4.10;;;3.73;;
5612;SDS011;63463;53.586;9.928;2022-10-22T15:43:48;7.10;;;3.40;;
5612;SDS011;63463;53.586;9.928;2022-10-22T15:46:17;5.53;;;3.80;;
5612;SDS011;63463;53.586;9.928;2022-10-22T15:48:44;5.87;;;3.87;;
5612;SDS011;63463;53.586;9.928;2022-10-22T15:51:11;4.03;;;3.33;;
5612;SDS011;63463;53.586;9.928;2022-10-22T15:53:37;5.90;;;4.27;;
5612;SDS011;63463;53.586;9.928;2022-10-22T15:56:04;4.83;;;4.43;;
5612;SDS011;63463;53.586;9.928;2022-10-22T15:58:30;5.30;;;4.03;;
5612;SDS011;63463;53.586;9.928;2022-10-22T16:01:02;7.10;;;4.63;;
5612;SDS011;63463;53.586;9.928;2022-10-22T16:03:29;7.40;;;4.63;;
5612;SDS011;63463;53.586;9.928;2022-10-22T16:05:55;5.93;;;4.07;;
5612;SDS011;63463;53.586;9.928;2022-10-22T16:08:22;7.70;;;5.00;;
5612;SDS011;63463;53.586;9.928;2022-10-22T16:10:48;16.70;;;4.30;;
5612;SDS011;63463;53.586;9.928;2022-10-22T16:13:14;5.03;;;4.57;;
5612;SDS011;63463;53.586;9.928;2022-10-22T16:15:40;5.63;;;4.50;;